Terminal Aerodrome Forecast
Issued by NWS Jacksonville, FL

Home | Current Version | Previous Version | Text Only | Print | Product List | Glossary On
Versions: 1 2 3 4 5 6 7 8 9 10 11 12 13 14 15
584
FTUS42 KJAX 270539
TAFSSI
TAF
KSSI 270539Z 2706/2806 08003KT P6SM FEW250
     FM271000 05006KT P6SM VCSH SCT030 BKN120
      TEMPO 2711/2714 SHRA BKN030
     FM271400 07011KT P6SM VCSH SCT035 BKN060
     FM271700 08012G18KT P6SM BKN040 BKN250
     FM280000 08010KT P6SM BKN250=

USA.gov is the U.S. government's official web portal to all federal, state and local government web resources and services.